Time;durP1;ratioP1;P1;durP2;ratioP2;P2;SDS_P1;SDS_P2;PMS_P1;PMS_P2;Temp;Humidity;BMP_temperature;BMP_pressure;BME280_temperature;BME280_humidity;BME280_pressure;Samples;Min_cycle;Max_cycle;Signal;HPM_P1;HPM_P2
2021/09/07 00:01:21;;;;;;;7.85;3.63;;;;;;;12.92;70.26;97410.22;5032827;28;20025;-58
2021/09/07 00:03:47;;;;;;;8.43;3.42;;;;;;;12.88;70.12;97419.94;5032662;28;20022;-58
2021/09/07 00:06:14;;;;;;;5.28;3.35;;;;;;;12.87;70.18;97412.13;5032662;28;20107;-57
2021/09/07 00:08:40;;;;;;;9.98;4.70;;;;;;;12.77;70.14;97416.81;5032600;28;20108;-58
2021/09/07 00:11:05;;;;;;;7.13;3.75;;;;;;;12.59;70.88;97420.91;5032528;28;20022;-57
2021/09/07 00:13:31;;;;;;;5.82;3.38;;;;;;;12.50;70.97;97422.06;5032610;28;20179;-56
2021/09/07 00:15:56;;;;;;;8.63;3.63;;;;;;;12.45;71.01;97414.34;5032480;28;20026;-56
2021/09/07 00:18:22;;;;;;;8.15;4.30;;;;;;;12.40;71.01;97420.63;5032713;28;20037;-57
2021/09/07 00:20:47;;;;;;;6.75;3.60;;;;;;;12.36;71.06;97419.88;5032918;28;20032;-58
2021/09/07 00:23:13;;;;;;;6.47;3.45;;;;;;;12.21;71.42;97423.81;5036182;28;20055;-56
2021/09/07 00:25:39;;;;;;;9.18;3.53;;;;;;;12.18;71.42;97418.66;5036096;28;20030;-57
2021/09/07 00:28:04;;;;;;;5.07;3.25;;;;;;;12.19;71.26;97423.03;5036134;28;20033;-53
2021/09/07 00:30:30;;;;;;;7.10;3.95;;;;;;;12.08;71.56;97416.34;5034584;28;20521;-55
2021/09/07 00:32:56;;;;;;;11.60;3.85;;;;;;;12.04;71.58;97412.03;5036016;28;20032;-57
2021/09/07 00:35:23;;;;;;;10.35;4.18;;;;;;;11.99;71.70;97416.56;5036252;28;20106;-56
2021/09/07 00:37:49;;;;;;;6.40;3.55;;;;;;;11.82;72.31;97410.06;5035860;28;20033;-55
2021/09/07 00:40:14;;;;;;;6.65;3.17;;;;;;;11.81;72.15;97410.97;5035817;28;20037;-56
2021/09/07 00:42:40;;;;;;;4.43;3.30;;;;;;;11.65;73.04;97405.28;5035690;28;20021;-54
2021/09/07 00:45:08;;;;;;;8.13;4.32;;;;;;;11.58;73.34;97406.38;5035793;28;20109;-54
2021/09/07 00:47:33;;;;;;;7.15;4.25;;;;;;;11.59;72.67;97403.72;5035708;28;20456;-56
2021/09/07 00:49:59;;;;;;;6.45;3.90;;;;;;;11.55;73.29;97412.56;5035709;28;20061;-55
2021/09/07 00:52:25;;;;;;;6.88;3.88;;;;;;;11.55;73.37;97399.47;5035755;28;20025;-56
2021/09/07 00:54:53;;;;;;;9.55;3.63;;;;;;;11.50;72.98;97402.22;5035475;28;20151;-58
2021/09/07 00:57:20;;;;;;;8.25;3.80;;;;;;;11.33;73.89;97400.06;5035410;28;20018;-53
2021/09/07 00:59:46;;;;;;;6.50;3.90;;;;;;;11.25;73.98;97400.28;5035341;28;20041;-56
2021/09/07 01:02:13;;;;;;;10.43;4.57;;;;;;;11.17;74.39;97397.00;5035431;28;20022;-56
2021/09/07 01:04:39;;;;;;;12.18;4.22;;;;;;;11.11;74.88;97397.19;5035342;28;20104;-57
2021/09/07 01:07:05;;;;;;;6.95;3.88;;;;;;;11.11;74.23;97402.41;5035393;28;20088;-57
2021/09/07 01:09:31;;;;;;;10.70;4.07;;;;;;;11.18;73.66;97401.34;5035329;28;20036;-56
2021/09/07 01:11:57;;;;;;;6.03;3.95;;;;;;;11.25;73.00;97399.41;5035267;28;20056;-57
2021/09/07 01:14:41;;;;;;;6.22;3.60;;;;;;;11.30;72.76;97408.00;5035394;28;20459;-57
2021/09/07 01:17:11;;;;;;;5.53;3.45;;;;;;;11.28;72.48;97395.84;5035132;28;20479;-57
2021/09/07 01:19:36;;;;;;;6.82;3.67;;;;;;;11.29;72.80;97405.44;5035143;28;20025;-57
2021/09/07 01:22:02;;;;;;;4.32;3.42;;;;;;;11.30;73.01;97405.41;5035163;28;20475;-59
2021/09/07 01:24:28;;;;;;;11.20;4.22;;;;;;;11.34;73.09;97409.63;5035121;28;20033;-57
2021/09/07 01:26:55;;;;;;;5.25;3.55;;;;;;;11.37;72.09;97409.56;5035180;28;20493;-54
2021/09/07 01:29:21;;;;;;;6.70;3.47;;;;;;;11.42;71.51;97412.06;5034922;28;20111;-57
2021/09/07 01:31:46;;;;;;;7.65;3.50;;;;;;;11.42;71.36;97408.56;5034096;28;20056;-54
2021/09/07 01:34:22;;;;;;;4.25;3.20;;;;;;;11.43;71.13;97410.28;5034880;28;20026;-55
2021/09/07 01:36:48;;;;;;;6.00;3.63;;;;;;;11.45;70.99;97404.13;5034925;28;20021;-56
2021/09/07 01:39:14;;;;;;;6.72;3.28;;;;;;;11.53;71.00;97411.75;5034713;28;20091;-56
2021/09/07 01:41:41;;;;;;;6.28;3.53;;;;;;;11.56;70.47;97409.03;5034642;28;20558;-58
2021/09/07 01:44:06;;;;;;;8.48;3.70;;;;;;;11.53;70.54;97401.25;5034664;28;20033;-57
2021/09/07 01:46:32;;;;;;;4.90;3.58;;;;;;;11.57;70.64;97402.03;5034762;28;20349;-58
2021/09/07 01:48:57;;;;;;;5.90;3.10;;;;;;;11.58;70.16;97396.75;5034592;28;20079;-54
2021/09/07 01:51:23;;;;;;;5.70;3.78;;;;;;;11.52;70.27;97396.94;5034339;28;20022;-57
2021/09/07 01:53:49;;;;;;;17.58;4.53;;;;;;;11.48;71.14;97395.31;5034314;28;20434;-57
2021/09/07 01:56:15;;;;;;;6.50;3.40;;;;;;;11.49;69.98;97391.78;5034425;28;20022;-58
2021/09/07 01:58:40;;;;;;;6.80;4.20;;;;;;;11.42;69.52;97400.72;5034321;28;20129;-57
2021/09/07 02:01:06;;;;;;;5.65;3.38;;;;;;;11.36;69.50;97402.63;5034353;28;20391;-58
2021/09/07 02:03:31;;;;;;;5.72;3.15;;;;;;;11.31;69.47;97401.88;5034238;28;20021;-55
2021/09/07 02:05:57;;;;;;;5.55;3.13;;;;;;;11.19;70.23;97400.44;5034192;28;20036;-58
2021/09/07 02:08:23;;;;;;;6.00;3.45;;;;;;;11.16;70.74;97394.41;5034204;28;20017;-53
2021/09/07 02:10:48;;;;;;;9.70;3.85;;;;;;;11.15;70.80;97397.94;5034090;28;20071;-54
2021/09/07 02:13:14;;;;;;;6.85;3.50;;;;;;;11.04;71.42;97396.47;5034097;28;20028;-56
2021/09/07 02:15:39;;;;;;;6.13;3.05;;;;;;;11.01;70.51;97395.69;5034043;28;20507;-56
2021/09/07 02:18:05;;;;;;;6.50;4.00;;;;;;;11.01;70.76;97396.53;5033991;28;20472;-56
2021/09/07 02:20:30;;;;;;;8.25;4.00;;;;;;;10.96;70.74;97394.03;5033991;28;20021;-56
2021/09/07 02:22:57;;;;;;;7.78;4.00;;;;;;;11.00;70.76;97400.06;5033837;28;20025;-56
2021/09/07 02:25:22;;;;;;;14.63;4.20;;;;;;;11.01;71.29;97393.91;5033770;28;20505;-57
2021/09/07 02:27:48;;;;;;;8.68;3.58;;;;;;;11.03;71.14;97391.25;5033704;28;20116;-55
2021/09/07 02:30:14;;;;;;;7.38;3.88;;;;;;;10.93;71.39;97396.72;5033601;28;20029;-58
2021/09/07 02:32:40;;;;;;;7.40;3.72;;;;;;;10.87;71.22;97386.44;5033776;28;20143;-55
2021/09/07 02:35:06;;;;;;;8.50;3.80;;;;;;;10.82;71.74;97393.53;5033696;28;20357;-58
2021/09/07 02:37:31;;;;;;;7.70;4.00;;;;;;;10.78;71.69;97403.25;5033704;28;20471;-57
2021/09/07 02:39:57;;;;;;;7.22;3.97;;;;;;;10.78;71.95;97405.88;5033632;28;20063;-55
2021/09/07 02:42:23;;;;;;;5.53;3.88;;;;;;;10.84;72.34;97403.06;5033502;28;20021;-53
2021/09/07 02:44:49;;;;;;;7.78;3.75;;;;;;;10.92;72.49;97404.63;5032576;28;20037;-56
2021/09/07 02:47:14;;;;;;;6.05;4.32;;;;;;;10.98;73.34;97405.34;5033522;28;20112;-58
2021/09/07 02:49:40;;;;;;;6.95;4.25;;;;;;;11.02;73.17;97405.25;5033489;28;20518;-55
2021/09/07 02:52:06;;;;;;;7.18;4.18;;;;;;;11.04;72.63;97411.31;5033437;28;20033;-55
2021/09/07 02:54:31;;;;;;;13.13;4.53;;;;;;;11.09;71.88;97406.81;5033315;28;20022;-57
2021/09/07 02:56:57;;;;;;;6.57;4.22;;;;;;;11.07;71.79;97406.84;5033260;28;20467;-56
2021/09/07 02:59:23;;;;;;;8.48;4.57;;;;;;;11.11;71.63;97405.03;5033109;28;20483;-56
2021/09/07 03:01:48;;;;;;;7.35;4.07;;;;;;;11.11;71.40;97408.50;5033265;28;20139;-58
2021/09/07 03:04:14;;;;;;;5.47;3.92;;;;;;;11.13;71.67;97408.44;5033228;28;20129;-54
2021/09/07 03:06:39;;;;;;;6.15;3.50;;;;;;;11.08;71.79;97402.50;5033371;28;20033;-55
2021/09/07 03:09:05;;;;;;;7.15;4.30;;;;;;;11.01;71.35;97412.25;5033227;28;20093;-57
2021/09/07 03:11:31;;;;;;;4.68;3.28;;;;;;;10.96;70.37;97409.75;5033173;28;20027;-56
2021/09/07 03:13:57;;;;;;;14.10;4.43;;;;;;;10.89;71.07;97402.13;5033154;28;20029;-54
2021/09/07 03:16:23;;;;;;;4.47;3.58;;;;;;;10.87;70.98;97408.22;5033093;28;20033;-57
2021/09/07 03:18:48;;;;;;;7.90;4.28;;;;;;;10.86;70.06;97410.88;5033037;28;20014;-57
2021/09/07 03:21:13;;;;;;;10.63;3.95;;;;;;;10.78;70.25;97408.47;5033103;28;20380;-56
2021/09/07 03:23:39;;;;;;;5.93;3.80;;;;;;;10.73;70.32;97418.19;5033053;28;20018;-58
2021/09/07 03:26:04;;;;;;;9.02;3.60;;;;;;;10.61;70.26;97406.25;5032991;28;20383;-56
2021/09/07 03:28:30;;;;;;;6.95;4.00;;;;;;;10.47;71.85;97409.19;5032883;28;20048;-56
2021/09/07 03:30:56;;;;;;;9.40;4.13;;;;;;;10.29;73.25;97413.09;5032798;28;20118;-55
2021/09/07 03:33:21;;;;;;;10.70;4.00;;;;;;;10.32;71.96;97413.00;5033081;28;20029;-57
2021/09/07 03:35:47;;;;;;;5.47;3.28;;;;;;;10.33;71.76;97409.50;5032878;28;20029;-57
2021/09/07 03:38:12;;;;;;;5.43;4.00;;;;;;;10.31;71.24;97414.78;5033065;28;20030;-57
2021/09/07 03:40:38;;;;;;;9.23;4.13;;;;;;;10.23;71.58;97421.91;5032850;28;20554;-56
2021/09/07 03:43:04;;;;;;;7.43;3.40;;;;;;;10.27;71.29;97423.59;5032739;28;20541;-56
2021/09/07 03:45:30;;;;;;;6.50;3.63;;;;;;;10.24;71.35;97431.50;5032770;28;20036;-56
2021/09/07 03:47:55;;;;;;;6.47;3.67;;;;;;;10.15;71.30;97427.34;5032859;28;20109;-58
2021/09/07 03:50:21;;;;;;;7.70;3.95;;;;;;;10.09;72.69;97427.47;5032707;28;20060;-56
2021/09/07 03:52:46;;;;;;;9.93;4.60;;;;;;;9.99;73.98;97432.03;5032703;28;20026;-57
2021/09/07 03:55:12;;;;;;;6.43;3.90;;;;;;;10.03;71.98;97433.69;5033689;28;20013;-56
2021/09/07 03:57:38;;;;;;;8.82;3.60;;;;;;;10.05;72.13;97428.44;5036362;28;20038;-54
2021/09/07 04:00:05;;;;;;;6.35;3.38;;;;;;;10.05;71.89;97431.91;5036552;28;20025;-53
2021/09/07 04:02:31;;;;;;;6.70;3.80;;;;;;;10.04;72.34;97435.41;5036492;28;20080;-54
2021/09/07 04:04:56;;;;;;;8.20;3.78;;;;;;;10.04;72.65;97437.16;5036365;28;20414;-58
2021/09/07 04:07:22;;;;;;;7.00;3.42;;;;;;;10.04;72.25;97439.78;5036500;28;20026;-59
2021/09/07 04:09:47;;;;;;;10.50;3.90;;;;;;;10.03;72.98;97433.69;5036471;28;20463;-56
2021/09/07 04:12:13;;;;;;;8.43;3.60;;;;;;;10.09;73.38;97430.94;5036378;28;20116;-56
2021/09/07 04:14:38;;;;;;;8.05;3.60;;;;;;;10.08;72.40;97433.56;5036330;28;20049;-57
2021/09/07 04:17:05;;;;;;;6.70;3.10;;;;;;;10.12;71.89;97437.88;5036277;28;20034;-56
2021/09/07 04:19:32;;;;;;;5.80;3.35;;;;;;;10.15;72.13;97439.53;5036295;28;20029;-53
2021/09/07 04:21:58;;;;;;;6.65;3.58;;;;;;;10.18;72.16;97439.47;5036265;28;20021;-56
2021/09/07 04:24:23;;;;;;;9.43;3.95;;;;;;;10.22;71.63;97444.63;5036154;28;20059;-54
2021/09/07 04:26:49;;;;;;;13.10;4.07;;;;;;;10.24;72.21;97441.97;5036133;28;20021;-53
2021/09/07 04:29:15;;;;;;;16.00;4.50;;;;;;;10.29;72.09;97437.47;5036008;28;20033;-57
2021/09/07 04:31:42;;;;;;;12.48;4.25;;;;;;;10.34;71.63;97442.59;5036192;28;20029;-56
2021/09/07 04:34:08;;;;;;;6.95;3.78;;;;;;;10.58;71.80;97449.06;5036032;28;20033;-54
2021/09/07 04:36:34;;;;;;;8.38;3.85;;;;;;;11.10;71.91;97434.72;5036049;28;20387;-54
2021/09/07 04:38:59;;;;;;;8.48;3.28;;;;;;;11.83;68.85;97450.25;5036134;28;20033;-59
2021/09/07 04:41:25;;;;;;;6.60;3.13;;;;;;;12.49;65.65;97455.31;5035939;28;20033;-55
2021/09/07 04:43:50;;;;;;;9.18;3.33;;;;;;;13.18;65.41;97450.47;5035842;28;20036;-55
2021/09/07 04:46:17;;;;;;;6.03;3.05;;;;;;;13.99;62.27;97454.69;5035769;28;20025;-58
2021/09/07 04:48:42;;;;;;;2.40;2.20;;;;;;;14.71;59.87;97450.19;5035967;28;20044;-59
2021/09/07 04:51:08;;;;;;;12.07;3.30;;;;;;;15.37;57.59;97456.28;5035622;28;20022;-58
2021/09/07 04:53:33;;;;;;;4.80;3.13;;;;;;;15.91;56.57;97455.72;5035607;28;20079;-59
2021/09/07 04:55:59;;;;;;;7.70;2.38;;;;;;;16.59;54.75;97458.81;5035736;28;20022;-57
2021/09/07 04:58:25;;;;;;;8.48;2.80;;;;;;;17.25;52.64;97458.31;5035511;28;20399;-58
2021/09/07 05:00:50;;;;;;;8.70;2.63;;;;;;;17.60;52.16;97460.91;5035680;28;20025;-60
2021/09/07 05:03:16;;;;;;;7.25;2.28;;;;;;;17.79;52.30;97455.50;5035424;28;20024;-56
2021/09/07 05:05:41;;;;;;;3.92;2.33;;;;;;;18.26;51.23;97465.44;5035444;28;20036;-58
2021/09/07 05:08:07;;;;;;;11.52;2.35;;;;;;;18.78;49.93;97460.84;5034430;28;20033;-57
2021/09/07 05:10:33;;;;;;;5.72;2.63;;;;;;;19.38;48.78;97459.16;5035328;28;20018;-58
2021/09/07 05:12:58;;;;;;;2.80;2.22;;;;;;;19.90;47.56;97467.56;5035388;28;20029;-59
2021/09/07 05:15:24;;;;;;;2.45;1.75;;;;;;;20.48;46.84;97468.50;5035264;28;20033;-59
2021/09/07 05:17:50;;;;;;;4.07;2.35;;;;;;;20.95;45.65;97461.94;5035328;28;20022;-59
2021/09/07 05:20:15;;;;;;;5.57;2.30;;;;;;;21.66;45.00;97459.94;5035278;28;20022;-60
2021/09/07 05:22:41;;;;;;;5.90;2.35;;;;;;;22.16;43.68;97457.41;5035240;28;20028;-60
2021/09/07 05:25:08;;;;;;;3.45;2.10;;;;;;;22.63;42.65;97459.44;5035181;28;20021;-59
2021/09/07 05:27:35;;;;;;;5.95;2.17;;;;;;;23.16;42.17;97463.56;5034965;28;20072;-56
2021/09/07 05:30:03;;;;;;;3.30;1.95;;;;;;;23.76;41.12;97464.47;5034829;28;20025;-59
2021/09/07 05:32:29;;;;;;;2.60;1.83;;;;;;;24.44;39.99;97463.69;5034922;28;20463;-59
2021/09/07 05:34:54;;;;;;;2.97;2.20;;;;;;;24.92;38.99;97458.97;5034988;28;20036;-60
2021/09/07 05:37:20;;;;;;;4.05;1.83;;;;;;;25.28;38.26;97462.22;5034909;28;20018;-59
2021/09/07 05:39:46;;;;;;;2.10;1.67;;;;;;;25.47;37.76;97464.19;5034767;28;20467;-59
2021/09/07 05:42:11;;;;;;;4.05;2.08;;;;;;;25.69;37.48;97469.56;5034676;28;20080;-59
2021/09/07 05:44:37;;;;;;;7.30;3.40;;;;;;;26.07;37.11;97464.56;5034827;28;20395;-58
2021/09/07 05:47:03;;;;;;;5.10;2.15;;;;;;;26.51;36.87;97458.94;5033527;28;20501;-59
2021/09/07 05:49:29;;;;;;;7.75;2.20;;;;;;;27.01;35.63;97457.22;5034631;28;20025;-59
2021/09/07 05:51:54;;;;;;;5.70;2.30;;;;;;;26.94;35.23;97456.06;5034497;28;20117;-59
2021/09/07 05:54:20;;;;;;;9.40;2.40;;;;;;;26.16;35.95;97452.19;5034778;28;20461;-58
2021/09/07 05:56:46;;;;;;;8.93;2.50;;;;;;;25.21;37.84;97455.69;5034570;28;20033;-58
2021/09/07 05:59:12;;;;;;;7.13;2.88;;;;;;;24.47;39.87;97463.44;5034157;28;20072;-58
2021/09/07 06:01:38;;;;;;;6.72;2.55;;;;;;;23.76;35.65;97459.13;5034448;28;20029;-58
2021/09/07 06:04:04;;;;;;;8.20;2.40;;;;;;;23.23;37.34;97456.81;5034372;28;20024;-59
2021/09/07 06:06:29;;;;;;;3.35;2.17;;;;;;;22.93;38.55;97458.13;5034257;28;20075;-57
2021/09/07 06:08:55;;;;;;;4.47;2.45;;;;;;;22.82;38.82;97458.91;5034301;28;20033;-59
2021/09/07 06:11:22;;;;;;;3.55;1.90;;;;;;;23.10;34.44;97454.22;5034168;28;20037;-58
2021/09/07 06:13:47;;;;;;;3.20;2.30;;;;;;;22.76;34.49;97458.53;5034225;28;20028;-58
2021/09/07 06:16:13;;;;;;;7.22;2.22;;;;;;;22.66;34.71;97458.38;5033972;28;20026;-58
2021/09/07 06:18:39;;;;;;;5.43;2.38;;;;;;;22.83;34.73;97452.66;5033779;28;20045;-59
2021/09/07 06:21:04;;;;;;;4.13;1.85;;;;;;;22.66;33.60;97455.72;5034058;28;20131;-59
2021/09/07 06:23:30;;;;;;;5.57;2.28;;;;;;;22.63;32.97;97450.59;5033974;28;20527;-58
2021/09/07 06:25:58;;;;;;;6.15;1.73;;;;;;;22.56;32.96;97459.00;5033950;28;20022;-57
2021/09/07 06:28:25;;;;;;;3.20;2.20;;;;;;;22.59;32.98;97457.97;5033862;28;20079;-56
2021/09/07 06:30:50;;;;;;;6.80;2.50;;;;;;;22.01;32.89;97442.50;5033990;28;20036;-58
2021/09/07 06:33:16;;;;;;;6.45;2.15;;;;;;;21.21;35.31;97461.16;5033802;28;20387;-56
2021/09/07 06:35:42;;;;;;;7.32;2.53;;;;;;;20.69;36.59;97456.50;5033753;28;20100;-58
2021/09/07 06:38:07;;;;;;;10.60;2.22;;;;;;;20.29;38.33;97459.91;5033707;28;20036;-57
2021/09/07 06:40:33;;;;;;;6.07;2.42;;;;;;;19.86;38.26;97457.25;5033657;28;20033;-55
2021/09/07 06:42:59;;;;;;;3.25;2.17;;;;;;;19.92;37.91;97452.41;5033829;28;20037;-56
2021/09/07 06:45:24;;;;;;;5.95;2.15;;;;;;;20.18;38.78;97463.25;5033739;28;20111;-56
2021/09/07 06:47:50;;;;;;;3.22;1.58;;;;;;;20.65;37.24;97462.13;5033565;28;20041;-58
2021/09/07 06:50:16;;;;;;;4.13;1.38;;;;;;;20.77;39.10;97456.00;5033467;28;20056;-58
2021/09/07 06:52:41;;;;;;;3.65;1.95;;;;;;;21.10;37.86;97464.53;5033421;28;20447;-58
2021/09/07 06:55:08;;;;;;;5.13;1.70;;;;;;;21.00;36.31;97453.66;5033430;28;20024;-56
2021/09/07 06:57:34;;;;;;;4.85;2.00;;;;;;;20.86;39.32;97459.84;5033377;28;20493;-57
2021/09/07 06:59:59;;;;;;;4.93;1.77;;;;;;;21.13;37.83;97461.66;5033207;28;20050;-57
2021/09/07 07:02:25;;;;;;;3.20;1.65;;;;;;;21.04;37.28;97459.66;5033429;28;20037;-57
2021/09/07 07:04:50;;;;;;;3.28;1.50;;;;;;;21.42;38.62;97460.66;5033452;28;20037;-58
2021/09/07 07:07:16;;;;;;;5.45;1.80;;;;;;;21.69;37.74;97454.41;5033224;28;20104;-56
2021/09/07 07:09:42;;;;;;;4.78;1.98;;;;;;;21.66;37.46;97455.47;5033227;28;20494;-58
2021/09/07 07:12:07;;;;;;;4.28;1.60;;;;;;;21.95;37.49;97460.59;5033045;28;20026;-57
2021/09/07 07:14:33;;;;;;;9.38;2.22;;;;;;;21.67;37.85;97467.81;5033344;28;20029;-58
2021/09/07 07:16:59;;;;;;;5.28;1.67;;;;;;;21.57;37.50;97466.75;5033193;28;20383;-58
2021/09/07 07:19:25;;;;;;;4.95;1.95;;;;;;;21.25;39.76;97470.63;5033226;28;20239;-57
2021/09/07 07:21:50;;;;;;;6.13;1.67;;;;;;;20.79;39.45;97458.53;5033163;28;20022;-58
2021/09/07 07:24:17;;;;;;;6.35;2.15;;;;;;;20.91;40.80;97462.25;5033046;28;20022;-59
2021/09/07 07:26:46;;;;;;;2.40;1.70;;;;;;;20.53;40.40;97471.75;5033239;28;20025;-58
2021/09/07 07:29:12;;;;;;;8.95;2.00;;;;;;;20.42;40.93;97472.41;5032944;28;20025;-55
2021/09/07 07:31:39;;;;;;;8.52;2.00;;;;;;;20.56;41.53;97471.53;5036241;28;20029;-57
2021/09/07 07:34:05;;;;;;;3.67;1.90;;;;;;;20.69;42.49;97483.09;5037218;28;20049;-57
2021/09/07 07:36:33;;;;;;;3.95;2.00;;;;;;;20.40;41.72;97474.31;5037244;28;20033;-57
2021/09/07 07:39:00;;;;;;;5.88;2.08;;;;;;;20.30;42.26;97474.03;5037123;28;20029;-59
2021/09/07 07:41:26;;;;;;;6.28;1.70;;;;;;;20.20;41.38;97466.66;5037030;28;20432;-58
2021/09/07 07:43:52;;;;;;;6.93;2.10;;;;;;;20.05;41.96;97471.09;5037032;28;20018;-57
2021/09/07 07:46:19;;;;;;;7.25;2.65;;;;;;;19.80;42.89;97475.25;5037020;28;20467;-57
2021/09/07 07:48:45;;;;;;;4.22;2.42;;;;;;;19.44;43.44;97465.91;5036966;28;20029;-57
2021/09/07 07:51:12;;;;;;;4.43;1.90;;;;;;;19.38;45.36;97469.78;5036755;28;20410;-59
2021/09/07 07:53:39;;;;;;;5.53;1.55;;;;;;;19.47;44.87;97471.03;5036777;28;20021;-58
2021/09/07 07:56:05;;;;;;;5.78;2.03;;;;;;;19.24;45.37;97469.75;5036657;28;20498;-55
2021/09/07 07:58:31;;;;;;;4.45;1.90;;;;;;;19.25;45.82;97479.41;5035195;28;20082;-58
2021/09/07 08:00:57;;;;;;;5.57;2.00;;;;;;;19.04;46.11;97472.59;5036655;28;20104;-58
2021/09/07 08:03:23;;;;;;;3.35;1.80;;;;;;;19.42;45.99;97467.81;5036771;28;20029;-57
2021/09/07 08:05:48;;;;;;;6.85;1.58;;;;;;;20.01;45.28;97466.09;5035251;28;20414;-57
2021/09/07 08:08:14;;;;;;;4.10;1.45;;;;;;;20.57;42.25;97475.91;5036452;28;20017;-57
2021/09/07 08:10:40;;;;;;;2.25;1.60;;;;;;;20.98;43.68;97471.50;5035523;28;20045;-56
2021/09/07 08:13:07;;;;;;;4.57;1.83;;;;;;;21.57;42.28;97464.94;5036746;28;20411;-57
2021/09/07 08:15:33;;;;;;;6.18;2.25;;;;;;;21.95;41.27;97465.09;5036389;28;20025;-57
2021/09/07 08:18:00;;;;;;;6.15;1.73;;;;;;;22.16;40.42;97462.72;5036313;28;20033;-58
2021/09/07 08:20:31;;;;;;;1.83;1.33;;;;;;;22.01;38.98;97456.69;5036260;28;20036;-58
2021/09/07 08:22:58;;;;;;;5.13;1.60;;;;;;;22.20;41.70;97460.69;5036215;28;20040;-58
2021/09/07 08:25:23;;;;;;;10.43;3.33;;;;;;;22.10;40.05;97468.50;5036300;28;20040;-58
2021/09/07 08:27:49;;;;;;;3.10;1.95;;;;;;;21.68;39.27;97466.03;5036212;28;20463;-59
2021/09/07 08:30:15;;;;;;;3.25;1.95;;;;;;;21.52;42.36;97471.56;5036015;28;20040;-58
2021/09/07 08:32:43;;;;;;;3.95;1.58;;;;;;;22.07;41.62;97464.22;5036063;28;20509;-59
2021/09/07 08:35:13;;;;;;;4.13;1.55;;;;;;;22.53;39.28;97461.03;5036370;28;20021;-58
2021/09/07 08:37:40;;;;;;;7.47;2.22;;;;;;;22.76;36.42;97461.22;5036236;28;20049;-58
2021/09/07 08:40:07;;;;;;;4.65;1.23;;;;;;;22.91;38.60;97453.88;5035993;28;20475;-58
2021/09/07 08:42:34;;;;;;;3.83;1.63;;;;;;;23.10;37.50;97458.69;5035905;28;20037;-57
2021/09/07 08:45:03;;;;;;;6.50;1.35;;;;;;;23.34;36.40;97456.00;5035891;28;20467;-58
2021/09/07 08:47:29;;;;;;;3.10;2.13;;;;;;;23.53;37.13;97448.41;5035812;28;20029;-59
2021/09/07 08:49:56;;;;;;;5.90;1.85;;;;;;;23.54;35.91;97442.13;5035862;28;20566;-59
2021/09/07 08:52:24;;;;;;;3.47;1.23;;;;;;;23.22;37.35;97462.25;5035794;28;20052;-56
2021/09/07 08:54:50;;;;;;;7.38;1.70;;;;;;;22.53;38.05;97467.22;5035662;28;20143;-57
2021/09/07 08:57:17;;;;;;;4.07;1.67;;;;;;;22.14;38.47;97450.47;5035602;28;20025;-58
2021/09/07 08:59:43;;;;;;;5.30;1.50;;;;;;;21.59;39.29;97455.03;5035560;28;20487;-57
2021/09/07 09:02:17;;;;;;;7.75;1.58;;;;;;;21.53;40.05;97455.47;5035507;28;20029;-58
2021/09/07 09:04:48;;;;;;;5.43;1.73;;;;;;;21.56;40.45;97449.94;5035566;28;20040;-57
2021/09/07 09:07:20;;;;;;;3.25;1.20;;;;;;;21.49;41.07;97450.47;5035465;28;20036;-59
2021/09/07 09:09:49;;;;;;;7.05;2.10;;;;;;;21.40;40.39;97452.78;5035451;28;20032;-59
2021/09/07 09:12:15;;;;;;;6.20;2.00;;;;;;;21.28;40.51;97450.97;5035414;28;20472;-58
2021/09/07 09:14:46;;;;;;;4.57;1.35;;;;;;;21.12;40.46;97456.44;5035400;28;20029;-58
2021/09/07 09:17:18;;;;;;;3.58;1.80;;;;;;;20.81;43.29;97451.34;5035351;28;20029;-57
2021/09/07 09:20:08;;;;;;;4.13;1.70;;;;;;;20.47;41.84;97456.19;5035235;28;20105;-57
2021/09/07 09:22:56;;;;;;;4.30;1.20;;;;;;;20.69;42.24;97453.84;5035124;28;20037;-55
2021/09/07 09:25:24;;;;;;;5.82;2.08;;;;;;;20.71;41.59;97449.28;5035113;28;20045;-57
2021/09/07 09:28:05;;;;;;;2.53;1.50;;;;;;;20.86;43.21;97443.91;5035363;28;20515;-57
2021/09/07 09:30:51;;;;;;;;;;;;;;;20.98;42.84;97449.41;5035377;28;20041;-55
2021/09/07 09:33:23;;;;;;;8.70;1.90;;;;;;;21.04;42.89;97447.19;5034839;28;19920;-59
2021/09/07 09:35:55;;;;;;;2.80;1.70;;;;;;;20.95;43.70;97440.66;5035041;28;20064;-58
2021/09/07 09:38:24;;;;;;;3.88;1.35;;;;;;;20.95;41.93;97439.84;5034954;28;20029;-55
2021/09/07 09:40:55;;;;;;;4.25;1.42;;;;;;;20.84;40.72;97445.81;5034937;28;20475;-58
2021/09/07 09:43:26;;;;;;;3.35;1.70;;;;;;;20.71;40.99;97443.94;5034580;28;20112;-58
2021/09/07 09:45:52;;;;;;;3.30;1.50;;;;;;;20.51;41.29;97444.41;5034747;28;20109;-58
2021/09/07 09:48:25;;;;;;;5.65;1.63;;;;;;;20.51;43.07;97441.75;5034691;28;20152;-58
2021/09/07 09:50:54;;;;;;;4.40;1.60;;;;;;;20.60;43.55;97440.28;5034643;28;20037;-57
2021/09/07 09:53:20;;;;;;;6.00;1.90;;;;;;;20.90;43.34;97440.13;5034203;28;20025;-57
2021/09/07 09:55:48;;;;;;;3.58;1.40;;;;;;;21.22;42.05;97444.22;5034502;28;20025;-57
2021/09/07 09:58:17;;;;;;;2.53;1.55;;;;;;;21.08;41.98;97448.66;5034193;28;20099;-57
2021/09/07 10:00:50;;;;;;;3.53;1.88;;;;;;;21.12;42.15;97441.34;5034417;28;20064;-57
2021/09/07 10:03:17;;;;;;;3.13;1.75;;;;;;;21.19;43.17;97447.13;5034565;28;20033;-57
2021/09/07 10:05:45;;;;;;;5.10;1.67;;;;;;;21.18;41.75;97440.09;5034330;28;20025;-58
2021/09/07 10:08:14;;;;;;;3.30;1.45;;;;;;;21.15;43.34;97440.28;5034320;28;20079;-57
2021/09/07 10:11:09;;;;;;;3.53;2.03;;;;;;;21.09;42.64;97441.56;5034298;28;20033;-59
2021/09/07 10:13:36;;;;;;;3.85;1.70;;;;;;;21.03;43.08;97434.84;5034252;28;20152;-58
2021/09/07 10:16:08;;;;;;;3.90;1.65;;;;;;;21.20;43.51;97428.38;5034163;28;20032;-58
2021/09/07 10:18:49;;;;;;;2.17;1.38;;;;;;;21.45;42.35;97436.50;5034205;28;20034;-58
2021/09/07 10:24:17;;;;;;;5.88;1.85;;;;;;;21.36;41.74;97434.47;5033991;28;20022;-58
2021/09/07 10:26:43;;;;;;;3.95;1.52;;;;;;;21.24;42.41;97431.69;5033873;28;20052;-57
2021/09/07 10:29:14;;;;;;;2.53;1.52;;;;;;;21.33;42.78;97419.56;5034123;28;20387;-57
2021/09/07 10:31:42;;;;;;;2.70;1.30;;;;;;;21.29;41.94;97418.09;5033753;28;20116;-58
2021/09/07 10:34:08;;;;;;;2.38;1.55;;;;;;;21.11;42.51;97414.84;5033892;28;20038;-58
2021/09/07 10:36:37;;;;;;;3.95;1.70;;;;;;;20.93;42.10;97417.81;5034018;28;20028;-58
2021/09/07 10:39:07;;;;;;;6.00;1.65;;;;;;;20.59;43.69;97428.81;5034037;28;20363;-57
2021/09/07 10:41:33;;;;;;;2.80;1.60;;;;;;;20.41;44.05;97429.03;5033659;28;20108;-57
2021/09/07 10:44:06;;;;;;;5.07;1.73;;;;;;;20.28;44.33;97430.78;5033563;28;20117;-59
2021/09/07 10:46:42;;;;;;;4.70;1.45;;;;;;;20.15;44.43;97428.06;5033518;28;20053;-56
2021/09/07 10:49:23;;;;;;;6.00;1.60;;;;;;;20.16;43.43;97425.31;5033613;28;20113;-58
2021/09/07 10:52:09;;;;;;;4.40;2.00;;;;;;;20.53;43.96;97415.94;5033528;28;20034;-56
2021/09/07 10:54:41;;;;;;;2.88;1.38;;;;;;;20.65;43.10;97411.63;5033464;28;20029;-57
2021/09/07 10:57:09;;;;;;;5.97;1.33;;;;;;;20.80;43.89;97423.06;5033696;28;20479;-58
2021/09/07 10:59:53;;;;;;;4.50;1.60;;;;;;;21.14;42.24;97414.66;5033186;28;20124;-57
2021/09/07 11:02:35;;;;;;;5.75;2.50;;;;;;;21.61;41.99;97396.38;5033350;28;20492;-58
2021/09/07 11:05:06;;;;;;;3.33;1.67;;;;;;;21.92;39.32;97396.94;5032404;28;20033;-57
2021/09/07 11:07:34;;;;;;;;;;;;;;;22.05;40.24;97396.03;5033807;28;20028;-59
2021/09/07 11:10:00;;;;;;;4.45;1.45;;;;;;;21.88;39.15;97414.06;5033247;28;19945;-58
2021/09/07 11:12:31;;;;;;;6.63;1.35;;;;;;;21.45;40.66;97404.56;5033211;28;20108;-57
2021/09/07 11:15:03;;;;;;;;;;;;;;;21.23;40.66;97395.41;5032458;28;20456;-57
2021/09/07 11:17:29;;;;;;;5.70;1.80;;;;;;;21.27;41.96;97393.38;5033325;28;19909;-56
2021/09/07 11:20:13;;;;;;;4.45;1.70;;;;;;;21.16;42.35;97391.47;5033323;28;20060;-59
2021/09/07 11:22:38;;;;;;;2.90;1.50;;;;;;;21.03;40.54;97386.13;5033160;28;20033;-58
2021/09/07 11:25:10;;;;;;;4.18;1.98;;;;;;;20.96;41.92;97388.34;5033175;28;20494;-58
2021/09/07 11:27:56;;;;;;;4.80;1.50;;;;;;;21.00;41.04;97384.53;5033095;28;20375;-58
2021/09/07 11:30:40;;;;;;;5.60;1.30;;;;;;;20.86;40.37;97387.22;5033096;28;20045;-59
2021/09/07 11:33:14;;;;;;;8.57;1.80;;;;;;;20.95;42.05;97384.00;5033097;28;20036;-57
2021/09/07 11:35:48;;;;;;;4.80;1.92;;;;;;;21.05;42.15;97382.41;5033148;28;20025;-55
2021/09/07 11:38:17;;;;;;;5.25;2.13;;;;;;;21.16;42.07;97379.00;5033053;28;20032;-57